Airfield :
LOGIN :

Register | Disclaimer

   EN    FR    IT 

 










Legend :    VFR   Marginal VFR   IFR   Intensive IFR   Very Intensive IFR
Visi :
Ceiling :
>= 8 km
>= 3000ft
5 to 8 km
1000 to 3000 ft
1500m to 5 km
500 to 1000 ft
800 to 1500m
200 to 500 ft
< 800m
< 200 ft
Symbols :   Thunderstorms  Fog  Heavy snow  Heavy precipitations  Wind > 20 kt
SIGMETs :     Misc.  Thunderstorms  Icing  Turbulence  Mountain Waves  Volcanic Ashes






- Airport Elevation : 82 ft
- IATA code : QIE


LFMI - Istres

CURRENT METAR :
  • 200800Z AUTO 35016KT 9999 3500 NSC 06/00 Q1024 BECMG 34022G35KT

EXPIRED METARs :
  • 200730Z AUTO 33025KT CAVOK 05/00 Q1024 BECMG 34022G35KT
  • 200700Z AUTO 33024KT CAVOK 05/M00 Q1024 BECMG 34022G35KT
  • 200630Z AUTO 33027KT CAVOK 05/M00 Q1024 BECMG 34022G35KT
  • 200600Z AUTO 33025KT CAVOK 05/M00 Q1024 BECMG 34022G35KT
  • 200530Z AUTO 33023G34KT CAVOK 05/M00 Q1024 NOSIG

TAF TAF LFMI
Valid from the 20 at 03:00 until the 21 at 03:00 UTC


200200Z 2003/2103 33015G25KT CAVOK TX09/2014Z TN02/2103Z
BECMG 2004/2006 34022G35KT
TEMPO 2016/2023 34032G42KT



MET'MAP, your aeronautical weather chart ! - Copyright ORBIFLY December 2007 - Disclaimer

ORBIFLY MET'MAP TEAM :

Programming & Development : Alexandra Zaïnal
Concept & original design : Baudouin d'Aumeries
Assistance for programming : Marc-Olivier Méhu
Technical & hardware support : Manuel Goepfert

Contact : metmap@orbifly.com




SOURCES & CREDITS :

   NOAA